This is the latest recevied weather packets stored in our database for station/object DF9PV-5. If no packets are shown the sender has not sent any weather packets the latest 10 day(s).
| Time | Temp. | Humidity | Pressure | Rain* | Wind** | Luminosity | Snow |
|---|---|---|---|---|---|---|---|
| 1777046732 | 19.44° C | 37% | 1020.5 hPa | 0 mm | - | - | - |
| 1777044068 | 18.89° C | 38% | 1020.8 hPa | 0 mm | - | - | - |
| 1777042524 | 18.89° C | 39% | 1020.9 hPa | 0 mm | - | - | - |
| 1777041952 | 18.33° C | 39% | 1021 hPa | 0 mm | - | - | - |
| 1777041324 | 18.33° C | 38% | 1021.1 hPa | 0 mm | - | - | - |
| 1777041043 | 18.33° C | 39% | 1021.1 hPa | 0 mm | - | - | - |
| 1777040735 | 18.33° C | 39% | 1021.1 hPa | 0 mm | - | - | - |
| 1777039228 | 17.78° C | 40% | 1021.4 hPa | 0 mm | - | - | - |
| 1777037727 | 17.78° C | 40% | 1021.7 hPa | 0 mm | - | - | - |
| 1777034428 | 19.44° C | 40% | 1022 hPa | 0 mm | - | - | - |
| 1777033228 | 19.44° C | 40% | 1022.1 hPa | 0 mm | - | - | - |
| 1777029324 | 18.89° C | 41% | 1022.5 hPa | 0 mm | - | - | - |
| 1777027231 | 18.33° C | 43% | 1022.7 hPa | 0 mm | - | - | - |
| 1777026661 | 17.22° C | 43% | 1022.7 hPa | 0 mm | - | - | - |
| 1777024525 | 16.67° C | 44% | 1023 hPa | 0 mm | - | - | - |
| 1777022125 | 16.11° C | 46% | 1023.2 hPa | 0 mm | - | - | - |
| 1777017325 | 12.78° C | 61% | 1023.4 hPa | 0 mm | - | - | - |
| 1777017021 | 12.22° C | 64% | 1023.3 hPa | 0 mm | - | - | - |
| 1777016449 | 12.22° C | 63% | 1023.5 hPa | 0 mm | - | - | - |
| 1777015539 | 11.11° C | 68% | 1023.5 hPa | 0 mm | - | - | - |
| 1777014373 | 10.56° C | 69% | 1023.9 hPa | 0 mm | - | - | - |
| 1777012831 | 7.78° C | 77% | 1024.2 hPa | 0 mm | - | - | - |
| 1777010719 | 7.22° C | 77% | 1024.3 hPa | 0 mm | - | - | - |
| 1777009823 | 6.11° C | 79% | 1024.2 hPa | 0 mm | - | - | - |
| 1777009229 | 5.56° C | 82% | 1024.2 hPa | 0 mm | - | - | - |
* Rain latest hour (hover to see other rain measurements)
** Current wind speed in m/s (hover to see current wind gust speed)